Time;durP1;ratioP1;P1;durP2;ratioP2;P2;SDS_P1;SDS_P2;PMS_P1;PMS_P2;Temp;Humidity;BMP_temperature;BMP_pressure;BME280_temperature;BME280_humidity;BME280_pressure;Samples;Min_cycle;Max_cycle;Signal;HPM_P1;HPM_P2
2023/03/09 00:01:20;;;;;;;31.23;26.97;;;;;;;1.04;100.00;98943.75;5033020;28;20022;-57
2023/03/09 00:03:46;;;;;;;32.90;29.60;;;;;;;0.99;100.00;98929.22;5031844;28;20807;-58
2023/03/09 00:06:12;;;;;;;33.20;29.60;;;;;;;1.00;100.00;98929.16;5040873;28;20113;-57
2023/03/09 00:08:37;;;;;;;33.55;30.10;;;;;;;0.98;100.00;98909.22;5042552;28;20025;-58
2023/03/09 00:11:04;;;;;;;34.53;31.00;;;;;;;0.96;100.00;98916.31;5032950;28;20028;-57
2023/03/09 00:13:29;;;;;;;30.73;26.17;;;;;;;0.98;100.00;98933.63;5029581;28;20039;-57
2023/03/09 00:15:55;;;;;;;33.90;30.50;;;;;;;0.97;100.00;98925.81;5039262;28;20119;-57
2023/03/09 00:18:23;;;;;;;32.90;29.53;;;;;;;1.03;100.00;98897.56;5028723;28;20422;-58
2023/03/09 00:20:48;;;;;;;32.33;28.93;;;;;;;0.99;100.00;98901.25;5030472;28;20059;-58
2023/03/09 00:23:17;;;;;;;33.53;30.08;;;;;;;1.03;100.00;98935.97;5031945;28;20072;-58
2023/03/09 00:25:44;;;;;;;33.93;30.40;;;;;;;0.95;100.00;98936.41;5030951;28;20104;-57
2023/03/09 00:28:09;;;;;;;34.07;30.37;;;;;;;0.97;100.00;98957.22;5031203;28;20022;-57
2023/03/09 00:30:37;;;;;;;32.90;29.40;;;;;;;0.99;100.00;98966.69;5031446;28;20430;-57
2023/03/09 00:33:02;;;;;;;30.30;25.80;;;;;;;1.00;100.00;98968.41;5031032;28;20083;-57
2023/03/09 00:35:28;;;;;;;35.20;31.50;;;;;;;0.98;100.00;98972.88;5031561;28;20431;-57
2023/03/09 00:37:53;;;;;;;34.70;30.90;;;;;;;1.01;100.00;98977.94;5013795;28;20108;-57
2023/03/09 00:40:19;;;;;;;35.23;31.53;;;;;;;1.04;100.00;98982.16;5030516;28;20644;-58
2023/03/09 00:42:45;;;;;;;33.53;29.93;;;;;;;1.06;100.00;98983.78;5031313;28;20025;-57
2023/03/09 00:45:12;;;;;;;35.10;31.30;;;;;;;0.99;100.00;98989.41;5031165;28;20064;-58
2023/03/09 00:47:38;;;;;;;35.00;31.30;;;;;;;1.01;100.00;98992.81;5031401;28;20036;-57
2023/03/09 00:50:05;;;;;;;35.97;32.07;;;;;;;0.98;100.00;98993.81;5030625;28;20540;-58
2023/03/09 00:52:31;;;;;;;36.40;30.70;;;;;;;1.01;100.00;98992.81;5031470;28;20025;-57
2023/03/09 00:54:57;;;;;;;33.95;30.27;;;;;;;1.03;100.00;98993.53;5030870;28;20522;-57
2023/03/09 00:57:24;;;;;;;35.47;31.77;;;;;;;1.03;100.00;99001.41;5031590;28;20030;-58
2023/03/09 00:59:51;;;;;;;34.93;30.87;;;;;;;1.00;100.00;99007.66;5029051;28;20080;-57
2023/03/09 01:02:17;;;;;;;36.07;32.33;;;;;;;0.97;100.00;99023.53;5031731;28;20415;-57
2023/03/09 01:04:43;;;;;;;36.23;32.27;;;;;;;0.92;100.00;99009.00;5031323;28;20028;-57
2023/03/09 01:07:08;;;;;;;35.77;31.73;;;;;;;0.98;100.00;99024.38;5031351;28;20072;-57
2023/03/09 01:09:33;;;;;;;35.30;31.43;;;;;;;0.89;100.00;99039.63;5031900;28;20428;-57
2023/03/09 01:11:59;;;;;;;37.70;33.63;;;;;;;0.78;100.00;99043.72;5035057;28;20112;-58
2023/03/09 01:14:24;;;;;;;35.80;31.13;;;;;;;0.83;100.00;99071.34;5033899;28;20026;-57
2023/03/09 01:16:49;;;;;;;33.23;27.97;;;;;;;0.89;100.00;99075.44;5035008;28;20033;-58
2023/03/09 01:19:15;;;;;;;36.13;32.20;;;;;;;0.92;100.00;99053.50;5035213;28;20097;-57
2023/03/09 01:21:40;;;;;;;37.20;33.17;;;;;;;0.98;100.00;99063.63;5034930;28;20029;-58
2023/03/09 01:24:06;;;;;;;35.00;31.20;;;;;;;1.05;100.00;99065.00;5034957;28;20064;-57
2023/03/09 01:26:31;;;;;;;33.00;29.43;;;;;;;0.96;100.00;99052.38;5033451;28;20017;-57
2023/03/09 01:28:59;;;;;;;34.20;30.50;;;;;;;1.02;100.00;99066.00;5033456;28;20461;-57
2023/03/09 01:31:24;;;;;;;33.67;29.97;;;;;;;1.03;100.00;99082.53;5034833;28;20550;-57
2023/03/09 01:33:52;;;;;;;32.33;28.43;;;;;;;1.07;100.00;99092.78;5034508;28;20029;-58
2023/03/09 01:36:19;;;;;;;35.20;31.40;;;;;;;1.05;100.00;99101.63;5034627;28;20388;-57
2023/03/09 01:38:45;;;;;;;33.90;30.20;;;;;;;1.12;100.00;99092.56;5034476;28;20041;-57
2023/03/09 01:41:12;;;;;;;33.47;29.88;;;;;;;1.10;100.00;99102.25;5034181;28;20025;-57
2023/03/09 01:43:41;;;;;;;34.07;30.50;;;;;;;1.06;100.00;99096.34;5034287;28;20104;-57
2023/03/09 01:46:24;;;;;;;36.08;32.15;;;;;;;1.14;100.00;99088.91;5034723;28;20029;-57
2023/03/09 01:49:18;;;;;;;34.15;30.50;;;;;;;1.14;100.00;99086.28;5034028;28;20033;-57
2023/03/09 01:52:01;;;;;;;32.63;29.23;;;;;;;1.12;100.00;99101.25;5034429;28;20049;-57
2023/03/09 01:54:41;;;;;;;33.90;30.20;;;;;;;1.16;100.00;99114.19;5034046;28;20033;-57
2023/03/09 01:57:24;;;;;;;33.83;30.08;;;;;;;1.17;100.00;99113.25;5034587;28;20036;-57
2023/03/09 01:59:52;;;;;;;30.30;25.63;;;;;;;1.18;100.00;99110.56;5032624;28;20051;-57
2023/03/09 02:02:20;;;;;;;34.25;30.15;;;;;;;1.24;100.00;99122.47;5038362;28;20043;-57
2023/03/09 02:04:53;;;;;;;33.70;30.10;;;;;;;1.13;100.00;99123.03;5038385;28;20472;-57
2023/03/09 02:07:22;;;;;;;33.75;30.25;;;;;;;1.22;100.00;99132.19;5033923;28;20192;-57
2023/03/09 02:09:52;;;;;;;32.70;27.63;;;;;;;1.20;100.00;99134.88;5033014;28;20053;-57
2023/03/09 02:12:21;;;;;;;35.57;31.87;;;;;;;1.18;100.00;99134.13;5032329;28;20375;-58
2023/03/09 02:14:46;;;;;;;33.53;29.87;;;;;;;1.20;100.00;99131.41;5032616;28;20108;-57
2023/03/09 02:17:14;;;;;;;35.30;30.87;;;;;;;1.19;100.00;99127.09;5032122;28;20109;-57
2023/03/09 02:20:08;;;;;;;32.67;29.17;;;;;;;1.13;100.00;99107.31;5031659;28;20100;-57
2023/03/09 02:22:38;;;;;;;35.00;30.17;;;;;;;1.21;100.00;99117.41;5033077;28;20032;-57
2023/03/09 02:25:34;;;;;;;34.13;30.50;;;;;;;1.27;100.00;99127.56;5031453;28;20550;-57
2023/03/09 02:28:00;;;;;;;35.63;30.90;;;;;;;1.18;100.00;99128.88;5033462;28;20041;-57
2023/03/09 02:30:29;;;;;;;35.38;31.48;;;;;;;1.19;100.00;99120.09;5033805;28;20033;-57
2023/03/09 02:33:10;;;;;;;36.20;29.77;;;;;;;1.18;100.00;99117.53;5033918;28;20029;-57
2023/03/09 02:35:38;;;;;;;35.77;31.83;;;;;;;1.16;100.00;99141.19;5031600;28;20026;-57
2023/03/09 02:38:11;;;;;;;35.72;31.38;;;;;;;1.13;100.00;99152.66;5033359;28;20083;-57
2023/03/09 02:40:40;;;;;;;35.90;31.77;;;;;;;1.11;100.00;99157.13;5032776;28;20522;-57
2023/03/09 02:43:07;;;;;;;37.72;32.75;;;;;;;1.14;100.00;99151.72;5033492;28;20025;-57
2023/03/09 02:45:32;;;;;;;38.20;31.13;;;;;;;1.22;100.00;99156.59;5031881;28;20040;-58
2023/03/09 02:47:59;;;;;;;39.20;33.97;;;;;;;1.21;100.00;99160.13;5012201;28;20065;-57
2023/03/09 02:50:25;;;;;;;40.90;29.67;;;;;;;1.21;100.00;99157.53;5013584;28;20050;-57
2023/03/09 02:52:51;;;;;;;40.78;36.15;;;;;;;1.19;100.00;99155.91;5012228;28;20040;-57
2023/03/09 02:55:16;;;;;;;39.13;33.47;;;;;;;1.22;100.00;99159.19;5013063;28;20026;-57
2023/03/09 02:57:42;;;;;;;40.73;35.07;;;;;;;1.21;100.00;99161.91;5028311;28;20049;-58
2023/03/09 03:00:13;;;;;;;40.70;35.63;;;;;;;1.21;100.00;99160.13;5032921;28;20497;-57
2023/03/09 03:02:39;;;;;;;39.65;32.58;;;;;;;1.25;100.00;99145.94;5033125;28;20021;-58
2023/03/09 03:05:07;;;;;;;41.63;36.75;;;;;;;1.19;100.00;99146.28;5033103;28;20037;-57
2023/03/09 03:07:33;;;;;;;40.53;34.85;;;;;;;1.11;100.00;99153.66;5032614;28;20078;-57
2023/03/09 03:09:59;;;;;;;40.17;35.27;;;;;;;1.17;100.00;99161.22;5032613;28;20041;-57
2023/03/09 03:12:24;;;;;;;42.57;35.87;;;;;;;1.16;100.00;99154.28;5045235;28;20119;-57
2023/03/09 03:14:49;;;;;;;42.10;37.17;;;;;;;1.17;100.00;99155.97;5048697;28;20070;-58
2023/03/09 03:17:15;;;;;;;41.88;35.58;;;;;;;1.12;100.00;99156.22;5031920;28;20468;-58
2023/03/09 03:19:40;;;;;;;41.40;35.30;;;;;;;1.04;100.00;99147.91;5041250;28;20029;-57
2023/03/09 03:22:06;;;;;;;42.83;37.17;;;;;;;1.14;100.00;99151.72;5050644;28;20562;-58
2023/03/09 03:24:36;;;;;;;40.95;33.95;;;;;;;1.14;100.00;99161.38;5045348;28;20079;-57
2023/03/09 03:27:01;;;;;;;42.50;34.40;;;;;;;1.18;100.00;99168.16;5033177;28;20051;-58
2023/03/09 03:29:27;;;;;;;43.73;35.13;;;;;;;1.09;100.00;99169.47;5035379;28;20037;-57
2023/03/09 03:31:52;;;;;;;43.17;36.20;;;;;;;1.11;100.00;99185.94;5049839;28;20063;-57
2023/03/09 03:34:17;;;;;;;41.60;35.17;;;;;;;1.08;100.00;99193.94;5046920;28;20088;-57
2023/03/09 03:36:43;;;;;;;43.80;35.40;;;;;;;1.09;100.00;99202.66;5030609;28;20029;-57
2023/03/09 03:39:08;;;;;;;43.70;35.67;;;;;;;1.11;100.00;99227.81;5041259;28;20021;-57
2023/03/09 03:41:34;;;;;;;42.00;35.03;;;;;;;1.06;100.00;99227.22;5048150;28;20071;-57
2023/03/09 03:44:02;;;;;;;42.80;36.50;;;;;;;1.16;100.00;99218.91;5048996;28;20025;-58
2023/03/09 03:46:27;;;;;;;47.10;38.17;;;;;;;1.24;100.00;99227.22;5047282;28;20025;-57
2023/03/09 03:48:53;;;;;;;46.47;39.17;;;;;;;1.23;100.00;99230.75;5031425;28;20035;-57
2023/03/09 03:51:18;;;;;;;46.03;35.63;;;;;;;1.23;100.00;99230.75;5030349;28;20052;-57
2023/03/09 03:53:44;;;;;;;47.73;37.13;;;;;;;1.27;100.00;99221.81;5039946;28;20036;-58
2023/03/09 03:56:09;;;;;;;48.30;38.23;;;;;;;1.25;100.00;99223.66;5033607;28;20099;-58
2023/03/09 03:58:37;;;;;;;45.20;36.20;;;;;;;1.24;100.00;99222.81;5044597;28;20028;-57
2023/03/09 04:01:03;;;;;;;47.83;39.37;;;;;;;1.29;100.00;99233.03;5035729;28;20030;-57
2023/03/09 04:03:29;;;;;;;47.43;38.17;;;;;;;1.24;100.00;99220.22;5045371;28;20028;-57
2023/03/09 04:05:54;;;;;;;50.40;40.20;;;;;;;1.25;100.00;99234.97;5050661;28;20025;-57
2023/03/09 04:08:20;;;;;;;49.30;39.93;;;;;;;1.19;100.00;99216.13;5047850;28;20583;-57
2023/03/09 04:10:47;;;;;;;48.83;39.80;;;;;;;1.29;100.00;99226.03;5036217;28;20104;-57
2023/03/09 04:13:13;;;;;;;51.93;41.17;;;;;;;1.28;100.00;99240.06;5037102;28;20541;-57
2023/03/09 04:15:38;;;;;;;51.97;41.87;;;;;;;1.22;100.00;99240.38;5051925;28;20028;-57
2023/03/09 04:18:04;;;;;;;53.10;40.93;;;;;;;1.29;100.00;99248.75;5030105;28;20104;-57
2023/03/09 04:20:29;;;;;;;50.10;40.27;;;;;;;1.20;100.00;99255.31;5031603;28;20049;-57
2023/03/09 04:22:57;;;;;;;54.27;41.87;;;;;;;1.25;100.00;99255.94;5043401;28;20047;-57
2023/03/09 04:25:22;;;;;;;58.00;42.93;;;;;;;1.15;100.00;99254.72;5040717;28;20032;-57
2023/03/09 04:27:48;;;;;;;53.57;42.87;;;;;;;1.20;100.00;99257.94;5030327;28;20030;-57
2023/03/09 04:30:14;;;;;;;53.85;39.60;;;;;;;1.22;100.00;99278.81;5029980;28;20045;-58
2023/03/09 04:32:39;;;;;;;56.13;44.03;;;;;;;1.17;100.00;99271.16;5029944;28;20465;-57
2023/03/09 04:35:09;;;;;;;60.97;44.20;;;;;;;1.18;100.00;99272.00;5030052;28;20021;-57
2023/03/09 04:37:34;;;;;;;53.23;37.33;;;;;;;1.22;100.00;99271.78;5031672;28;20448;-57
2023/03/09 04:39:59;;;;;;;53.47;38.03;;;;;;;1.21;100.00;99274.50;5030781;28;20348;-57
2023/03/09 04:42:25;;;;;;;58.60;45.70;;;;;;;1.14;100.00;99273.94;5031432;28;20108;-57
2023/03/09 04:44:50;;;;;;;59.63;43.60;;;;;;;1.21;100.00;99282.38;5030707;28;20392;-57
2023/03/09 04:47:15;;;;;;;57.87;40.97;;;;;;;1.23;100.00;99296.22;5030085;28;20053;-57
2023/03/09 04:49:41;;;;;;;57.77;45.90;;;;;;;1.18;100.00;99299.06;5031202;28;20046;-57
2023/03/09 04:52:07;;;;;;;61.17;46.33;;;;;;;1.22;100.00;99282.28;5031156;28;20093;-57
2023/03/09 04:54:33;;;;;;;62.10;47.30;;;;;;;1.18;100.00;99285.97;5031231;28;20108;-57
2023/03/09 04:56:58;;;;;;;62.43;47.30;;;;;;;1.13;100.00;99298.44;5031445;28;20018;-57
2023/03/09 04:59:24;;;;;;;68.00;47.97;;;;;;;1.14;100.00;99305.38;5030376;28;20040;-57
2023/03/09 05:01:49;;;;;;;60.63;45.30;;;;;;;1.13;100.00;99308.91;5031214;28;20029;-57
2023/03/09 05:04:15;;;;;;;63.77;47.57;;;;;;;1.13;100.00;99308.91;5031232;28;20025;-57
2023/03/09 05:06:44;;;;;;;65.87;47.73;;;;;;;1.12;100.00;99309.84;5031539;28;20030;-57
2023/03/09 05:09:11;;;;;;;62.83;45.97;;;;;;;1.14;100.00;99315.84;5031358;28;20041;-57
2023/03/09 05:11:38;;;;;;;65.87;48.97;;;;;;;1.18;100.00;99324.38;5030976;28;20033;-57
2023/03/09 05:14:04;;;;;;;68.97;47.73;;;;;;;1.17;100.00;99328.78;5030683;28;20026;-56
2023/03/09 05:16:29;;;;;;;65.83;45.97;;;;;;;1.16;100.00;99332.31;5031168;28;20040;-57
2023/03/09 05:18:55;;;;;;;68.67;48.97;;;;;;;1.05;100.00;99340.69;5031635;28;20018;-57
2023/03/09 05:21:21;;;;;;;64.97;43.40;;;;;;;1.17;100.00;99360.19;5029874;28;20021;-56
2023/03/09 05:23:49;;;;;;;73.87;52.40;;;;;;;1.10;100.00;99354.41;5031485;28;20022;-56
2023/03/09 05:26:14;;;;;;;61.93;42.63;;;;;;;1.23;100.00;99356.44;5030503;28;20037;-56
2023/03/09 05:28:42;;;;;;;68.53;49.70;;;;;;;1.18;100.00;99347.94;5032101;28;20087;-56
2023/03/09 05:31:10;;;;;;;73.97;51.43;;;;;;;1.23;100.00;99344.19;5045057;28;20076;-56
2023/03/09 05:33:35;;;;;;;70.03;50.60;;;;;;;1.27;100.00;99348.38;5035028;28;20030;-56
2023/03/09 05:36:14;;;;;;;74.33;51.03;;;;;;;1.20;100.00;99351.34;5029003;28;20076;-57
2023/03/09 05:38:39;;;;;;;75.17;51.63;;;;;;;1.18;100.00;99371.50;5031047;28;20041;-56
2023/03/09 05:41:05;;;;;;;76.60;51.57;;;;;;;1.17;100.00;99373.28;5030235;28;20415;-56
2023/03/09 05:43:35;;;;;;;72.78;51.95;;;;;;;1.17;100.00;99357.56;5029815;28;20029;-56
2023/03/09 05:46:01;;;;;;;72.40;51.50;;;;;;;1.23;100.00;99346.81;5030278;28;20072;-56
2023/03/09 05:48:27;;;;;;;75.03;48.57;;;;;;;1.27;100.00;99347.53;5028826;28;20366;-56
2023/03/09 05:50:52;;;;;;;75.53;53.30;;;;;;;1.25;100.00;99350.19;5028868;28;20072;-56
2023/03/09 05:53:18;;;;;;;76.55;54.20;;;;;;;1.21;100.00;99340.81;5029576;28;20528;-56
2023/03/09 05:55:43;;;;;;;77.93;52.40;;;;;;;1.27;100.00;99363.22;5031102;28;20030;-56
2023/03/09 05:58:08;;;;;;;73.57;52.83;;;;;;;1.28;100.00;99370.16;5032243;28;20017;-56
2023/03/09 06:00:34;;;;;;;71.37;45.20;;;;;;;1.32;100.00;99380.44;5034207;28;20105;-56
2023/03/09 06:03:01;;;;;;;77.47;54.50;;;;;;;1.30;100.00;99381.41;5034367;28;20033;-56
2023/03/09 06:05:27;;;;;;;78.25;53.65;;;;;;;1.27;100.00;99382.41;5034375;28;20029;-56
2023/03/09 06:07:52;;;;;;;72.30;50.22;;;;;;;1.30;100.00;99379.63;5034099;28;20036;-56
2023/03/09 06:10:18;;;;;;;75.73;53.10;;;;;;;1.25;100.00;99376.38;5033579;28;20037;-56
2023/03/09 06:12:43;;;;;;;69.67;50.43;;;;;;;1.27;100.00;99384.19;5033050;28;20461;-56
2023/03/09 06:15:09;;;;;;;75.93;54.83;;;;;;;1.29;100.00;99382.31;5033838;28;20033;-57
2023/03/09 06:17:37;;;;;;;75.80;53.10;;;;;;;1.30;100.00;99391.88;5033869;28;20038;-57
2023/03/09 06:20:03;;;;;;;73.83;53.57;;;;;;;1.30;100.00;99391.88;5034018;28;20053;-56
2023/03/09 06:22:29;;;;;;;78.07;53.70;;;;;;;1.26;100.00;99391.16;5033997;28;20100;-57
2023/03/09 06:24:54;;;;;;;73.87;52.93;;;;;;;1.26;100.00;99395.56;5033598;28;20060;-56
2023/03/09 06:27:20;;;;;;;67.93;51.80;;;;;;;1.32;100.00;99404.00;5034025;28;20434;-56
2023/03/09 06:29:45;;;;;;;77.60;52.53;;;;;;;1.38;100.00;99415.91;5033325;28;20116;-56
2023/03/09 06:32:10;;;;;;;74.47;51.70;;;;;;;1.36;100.00;99423.03;5033860;28;20021;-56
2023/03/09 06:34:36;;;;;;;70.67;46.20;;;;;;;1.40;100.00;99408.00;5032305;28;20057;-56
2023/03/09 06:37:01;;;;;;;75.77;55.53;;;;;;;1.35;100.00;99418.69;5033618;28;20029;-56
2023/03/09 06:39:29;;;;;;;74.20;55.30;;;;;;;1.28;100.00;99402.44;5032404;28;20025;-56
2023/03/09 06:41:54;;;;;;;77.07;54.13;;;;;;;1.32;100.00;99429.31;5045139;28;20057;-57
2023/03/09 06:44:20;;;;;;;73.07;48.07;;;;;;;1.31;100.00;99425.84;5049753;28;20067;-57
2023/03/09 06:46:45;;;;;;;79.33;56.10;;;;;;;1.35;100.00;99429.16;5040757;28;20036;-56
2023/03/09 06:49:11;;;;;;;80.57;55.43;;;;;;;1.36;100.00;99436.97;5032606;28;20463;-56
2023/03/09 06:51:36;;;;;;;78.83;55.30;;;;;;;1.41;100.00;99443.75;5033019;28;20033;-57
2023/03/09 06:54:01;;;;;;;77.83;53.80;;;;;;;1.34;100.00;99453.66;5031480;28;20048;-56
2023/03/09 06:56:27;;;;;;;75.28;54.72;;;;;;;1.40;100.00;99455.16;5032737;28;20151;-56
2023/03/09 06:58:53;;;;;;;81.72;56.83;;;;;;;1.40;100.00;99463.84;5029523;28;20032;-57
2023/03/09 07:01:21;;;;;;;73.90;54.17;;;;;;;1.41;100.00;99459.44;5029665;28;20039;-57
2023/03/09 07:03:49;;;;;;;76.80;52.57;;;;;;;1.47;100.00;99473.13;5045152;28;20498;-57
2023/03/09 07:06:14;;;;;;;70.77;46.00;;;;;;;1.48;100.00;99481.84;5049785;28;20033;-57
2023/03/09 07:08:40;;;;;;;74.57;53.67;;;;;;;1.42;100.00;99488.22;5040298;28;20399;-57
2023/03/09 07:11:07;;;;;;;75.13;55.67;;;;;;;1.49;100.00;99499.22;5031629;28;20163;-57
2023/03/09 07:13:35;;;;;;;73.57;54.47;;;;;;;1.50;100.00;99499.19;5042000;28;20030;-57
2023/03/09 07:16:04;;;;;;;73.20;55.23;;;;;;;1.48;100.00;99510.66;5032619;28;20048;-56
2023/03/09 07:18:33;;;;;;;73.47;53.73;;;;;;;1.47;100.00;99517.66;5033160;28;20104;-57
2023/03/09 07:21:00;;;;;;;74.87;52.87;;;;;;;1.47;100.00;99524.66;5031310;28;20048;-57
2023/03/09 07:23:26;;;;;;;78.77;56.60;;;;;;;1.43;100.00;99538.81;5033032;28;20480;-56
2023/03/09 07:25:52;;;;;;;75.67;54.13;;;;;;;1.47;100.00;99519.41;5032305;28;20026;-57
2023/03/09 07:28:17;;;;;;;73.60;49.13;;;;;;;1.50;100.00;99522.75;5031183;28;20455;-57
2023/03/09 07:30:43;;;;;;;76.72;54.13;;;;;;;1.40;100.00;99529.34;5030942;28;20040;-57
2023/03/09 07:33:08;;;;;;;77.97;55.60;;;;;;;1.46;100.00;99529.03;5029824;28;20033;-56
2023/03/09 07:35:40;;;;;;;76.47;52.37;;;;;;;1.52;100.00;99538.38;5043068;28;20490;-57
2023/03/09 07:38:05;;;;;;;74.17;53.13;;;;;;;1.54;100.00;99540.03;5031769;28;20040;-57
2023/03/09 07:40:31;;;;;;;75.75;55.10;;;;;;;1.54;100.00;99549.66;5031586;28;20028;-57
2023/03/09 07:42:56;;;;;;;75.03;54.00;;;;;;;1.52;100.00;99567.22;5031750;28;20093;-57
2023/03/09 07:45:22;;;;;;;77.20;53.70;;;;;;;1.57;100.00;99571.31;5032105;28;20025;-57
2023/03/09 07:47:48;;;;;;;74.35;53.45;;;;;;;1.48;100.00;99556.03;5030933;28;20029;-57
2023/03/09 07:50:13;;;;;;;75.43;53.38;;;;;;;1.55;100.00;99562.66;5031601;28;20056;-56
2023/03/09 07:52:39;;;;;;;76.50;53.20;;;;;;;1.54;100.00;99566.22;5030463;28;20082;-57
2023/03/09 07:55:07;;;;;;;73.80;52.50;;;;;;;1.56;100.00;99567.00;5031384;28;20441;-56
2023/03/09 07:57:33;;;;;;;76.13;54.35;;;;;;;1.54;100.00;99560.97;5031842;28;20106;-56
2023/03/09 07:59:59;;;;;;;77.78;53.40;;;;;;;1.61;100.00;99574.63;5031967;28;20099;-57
2023/03/09 08:02:25;;;;;;;72.13;52.27;;;;;;;1.62;100.00;99571.13;5030672;28;20488;-57
2023/03/09 08:04:51;;;;;;;73.57;53.10;;;;;;;1.65;100.00;99570.09;5031409;28;20037;-57
2023/03/09 08:07:17;;;;;;;73.68;51.80;;;;;;;1.67;100.00;99574.34;5031744;28;20025;-57
2023/03/09 08:09:43;;;;;;;72.22;53.03;;;;;;;1.70;100.00;99587.31;5031325;28;20018;-57
2023/03/09 08:12:09;;;;;;;75.88;53.20;;;;;;;1.71;100.00;99594.25;5031835;28;20026;-56
2023/03/09 08:14:37;;;;;;;70.05;52.17;;;;;;;1.73;100.00;99588.94;5030302;28;20036;-57
2023/03/09 08:17:03;;;;;;;72.27;50.43;;;;;;;1.76;100.00;99587.00;5031825;28;20095;-56
2023/03/09 08:19:31;;;;;;;72.33;51.30;;;;;;;1.73;100.00;99607.28;5029849;28;20028;-56
2023/03/09 08:21:56;;;;;;;72.83;53.47;;;;;;;1.72;100.00;99602.97;5031910;28;20021;-57
2023/03/09 08:24:24;;;;;;;72.65;52.47;;;;;;;1.78;100.00;99606.16;5029974;28;20025;-56
2023/03/09 08:26:50;;;;;;;72.60;46.47;;;;;;;1.84;100.00;99599.75;5031438;28;20051;-57
2023/03/09 08:29:15;;;;;;;73.28;52.97;;;;;;;1.84;100.00;99599.75;5030364;28;20534;-57
2023/03/09 08:31:40;;;;;;;74.67;51.67;;;;;;;1.89;100.00;99607.44;5030503;28;20013;-56
2023/03/09 08:34:06;;;;;;;75.60;51.65;;;;;;;1.88;100.00;99619.66;5031297;28;20022;-57
2023/03/09 08:36:32;;;;;;;74.40;52.50;;;;;;;1.90;100.00;99628.31;5031137;28;20021;-56
2023/03/09 08:38:58;;;;;;;71.13;51.10;;;;;;;1.89;100.00;99629.25;5031505;28;20021;-57
2023/03/09 08:41:23;;;;;;;76.05;51.90;;;;;;;1.90;100.00;99636.19;5030052;28;20445;-57
2023/03/09 08:43:50;;;;;;;72.40;50.72;;;;;;;1.97;100.00;99644.59;5031522;28;20025;-57
2023/03/09 08:46:16;;;;;;;72.93;51.83;;;;;;;1.96;100.00;99641.13;5030873;28;20032;-56
2023/03/09 08:48:41;;;;;;;73.07;50.90;;;;;;;2.03;100.00;99631.22;5030839;28;20469;-57
2023/03/09 08:51:09;;;;;;;71.88;52.17;;;;;;;2.02;100.00;99632.97;5020661;28;20042;-57
2023/03/09 08:53:36;;;;;;;71.20;51.33;;;;;;;2.07;100.00;99663.38;5021768;28;20017;-56
2023/03/09 08:56:03;;;;;;;75.53;54.13;;;;;;;2.07;100.00;99666.00;5022219;28;20044;-57
2023/03/09 08:58:29;;;;;;;73.90;53.05;;;;;;;2.05;100.00;99664.28;5026683;28;20037;-57
2023/03/09 09:00:54;;;;;;;72.55;52.05;;;;;;;2.12;100.00;99671.88;5028675;28;20022;-56
2023/03/09 09:03:19;;;;;;;71.80;50.70;;;;;;;2.10;100.00;99664.09;5031060;28;20585;-56
2023/03/09 09:05:45;;;;;;;69.95;48.88;;;;;;;2.12;100.00;99667.50;5029799;28;20010;-56
2023/03/09 09:08:10;;;;;;;71.70;49.80;;;;;;;2.14;100.00;99670.03;5030127;28;20025;-57
2023/03/09 09:10:42;;;;;;;70.93;50.00;;;;;;;2.24;100.00;99681.78;5030473;28;20030;-56
2023/03/09 09:13:08;;;;;;;72.22;51.13;;;;;;;2.21;100.00;99682.78;5031283;28;20025;-56
2023/03/09 09:15:33;;;;;;;72.82;52.28;;;;;;;2.31;100.00;99687.59;5031107;28;20032;-56
2023/03/09 09:17:59;;;;;;;71.40;49.67;;;;;;;2.31;100.00;99693.69;5030749;28;20025;-57
2023/03/09 09:20:24;;;;;;;68.22;48.63;;;;;;;2.21;100.00;99674.91;5031471;28;20392;-56
2023/03/09 09:22:50;;;;;;;69.22;48.33;;;;;;;2.36;100.00;99675.13;5031340;28;20055;-57
2023/03/09 09:25:15;;;;;;;67.32;49.80;;;;;;;2.36;100.00;99669.88;5030691;28;20029;-56
2023/03/09 09:27:41;;;;;;;70.30;50.75;;;;;;;2.31;100.00;99683.19;5029643;28;20564;-57
2023/03/09 09:30:09;;;;;;;74.97;53.75;;;;;;;2.29;100.00;99671.91;5032735;28;20059;-56
2023/03/09 09:32:35;;;;;;;70.57;50.90;;;;;;;2.40;100.00;99674.03;5034907;28;20037;-57
2023/03/09 09:35:00;;;;;;;68.80;52.42;;;;;;;2.41;100.00;99692.34;5034453;28;20033;-57
2023/03/09 09:37:28;;;;;;;70.88;53.15;;;;;;;2.40;100.00;99703.72;5034925;28;20104;-57
2023/03/09 09:39:53;;;;;;;71.03;52.88;;;;;;;2.30;100.00;99706.88;5032807;28;20469;-57
2023/03/09 09:42:29;;;;;;;75.30;53.50;;;;;;;2.28;100.00;99702.53;5034699;28;20113;-56
2023/03/09 09:44:56;;;;;;;73.88;53.13;;;;;;;2.24;100.00;99701.00;5033288;28;20082;-57
2023/03/09 09:47:25;;;;;;;78.85;55.42;;;;;;;2.21;100.00;99690.66;5034700;28;20095;-56
2023/03/09 09:49:55;;;;;;;76.35;55.13;;;;;;;2.24;100.00;99694.91;5032483;28;20513;-57
2023/03/09 09:52:29;;;;;;;;;;;;;;;2.45;100.00;99712.25;5034532;28;20060;-57
2023/03/09 09:55:19;;;;;;;72.47;51.27;;;;;;;2.44;100.00;99700.06;5033909;28;19913;-57
2023/03/09 09:58:11;;;;;;;76.82;52.30;;;;;;;2.48;100.00;99708.63;5034288;28;20021;-56
2023/03/09 10:00:42;;;;;;;76.22;53.58;;;;;;;2.46;100.00;99711.31;5033810;28;20025;-56
2023/03/09 10:03:07;;;;;;;74.93;51.83;;;;;;;2.48;100.00;99704.22;5032636;28;20059;-57
2023/03/09 10:05:48;;;;;;;76.75;53.55;;;;;;;2.55;100.00;99703.94;5034252;28;20025;-56
2023/03/09 10:08:48;;;;;;;74.43;53.30;;;;;;;2.57;100.00;99708.19;5033939;28;20108;-57
2023/03/09 10:11:23;;;;;;;76.97;52.55;;;;;;;2.61;100.00;99698.38;5033448;28;20030;-57
2023/03/09 10:13:55;;;;;;;77.10;55.22;;;;;;;2.63;100.00;99709.66;5032940;28;20458;-57
2023/03/09 10:16:26;;;;;;;69.50;49.55;;;;;;;2.53;100.00;99690.00;5032499;28;20025;-56
2023/03/09 10:18:59;;;;;;;69.88;51.15;;;;;;;2.69;100.00;99706.72;5049549;28;20022;-57
2023/03/09 10:21:46;;;;;;;66.30;49.45;;;;;;;2.71;99.63;99704.88;5033521;28;20030;-57
2023/03/09 10:24:22;;;;;;;64.18;48.33;;;;;;;2.82;99.68;99718.31;5032570;28;20021;-56
2023/03/09 10:27:12;;;;;;;63.92;49.38;;;;;;;2.82;99.07;99709.59;5033445;28;20049;-56
2023/03/09 10:29:40;;;;;;;;;;;;;;;3.04;99.88;99701.50;5034215;28;20094;-56
2023/03/09 10:32:24;;;;;;;60.58;43.75;;;;;;;3.01;98.69;99701.66;5032157;28;20008;-56
2023/03/09 10:34:58;;;;;;;62.50;45.67;;;;;;;3.00;98.41;99698.19;5033237;28;20096;-57
2023/03/09 10:37:31;;;;;;;60.75;45.28;;;;;;;3.04;97.64;99698.88;5032789;28;20033;-57
2023/03/09 10:40:02;;;;;;;62.78;48.88;;;;;;;3.04;98.00;99701.50;5033423;28;20096;-56
2023/03/09 10:42:28;;;;;;;62.00;48.08;;;;;;;3.01;97.28;99696.41;5032816;28;20029;-57
2023/03/09 10:45:03;;;;;;;63.80;51.38;;;;;;;2.99;98.05;99698.25;5032385;28;20021;-56
2023/03/09 10:47:47;;;;;;;62.67;46.90;;;;;;;3.13;97.75;99701.03;5033439;28;20030;-57
2023/03/09 10:50:14;;;;;;;64.35;49.67;;;;;;;3.16;98.35;99719.25;5032624;28;20407;-56
2023/03/09 10:52:40;;;;;;;64.93;50.92;;;;;;;3.09;97.94;99704.72;5032983;28;20037;-56
2023/03/09 10:55:27;;;;;;;66.30;51.92;;;;;;;3.19;98.31;99708.59;5047846;28;20036;-56
2023/03/09 10:57:58;;;;;;;66.35;53.25;;;;;;;3.15;97.30;99701.81;5031804;28;20025;-57
2023/03/09 11:00:26;;;;;;;68.20;51.58;;;;;;;3.12;97.40;99707.22;5033152;28;20025;-56
2023/03/09 11:02:59;;;;;;;67.80;50.90;;;;;;;3.22;98.39;99703.19;5032722;28;20025;-57
2023/03/09 11:05:30;;;;;;;68.65;52.67;;;;;;;3.32;97.94;99703.56;5032629;28;20103;-57
2023/03/09 11:08:07;;;;;;;66.78;54.42;;;;;;;3.33;99.14;99713.16;5033261;28;20037;-57
2023/03/09 11:10:34;;;;;;;67.25;49.97;;;;;;;3.45;98.19;99712.50;5032517;28;20029;-56
2023/03/09 11:13:01;;;;;;;68.28;54.42;;;;;;;3.31;97.50;99688.72;5031534;28;20061;-57
2023/03/09 11:15:28;;;;;;;68.22;53.22;;;;;;;3.34;97.40;99712.22;5032681;28;20525;-56
2023/03/09 11:17:55;;;;;;;69.18;53.10;;;;;;;3.41;98.62;99710.97;5031461;28;20034;-57
2023/03/09 11:20:26;;;;;;;70.63;55.58;;;;;;;3.38;98.35;99704.09;5031811;28;20021;-56
2023/03/09 11:22:51;;;;;;;71.55;53.88;;;;;;;3.36;97.14;99699.84;5031111;28;20075;-57